• Join FlightAware (Why Join?)
  • Login
  • US Flag 
03:33PM EDT


 

Airport Tracker/Info


-or-


 

Live Flight TrackerFlight Track Log ✈ EJA122 ✈ 16-Jun-2013 ✈ KSUN - KSJC

Flight Track Log - Related Links

Times and Time Zones

All times are in EDT time to prevent confusion due to time zone crossing. See the EJA122 flight status page for this flight to view local times or setup timezone preferences in your user account.

Time Position Orientation Groundspeed Altitude Reporting Facility
EDT Latitude Longitude Course Direction KTS MPH feet Rate Location/Type
12:23PM 43.2783 -114.2478 190° South 324 373 10,600  Level Salt Lake Center
12:24PM 42.9701 -114.3567 189° South  Level FlightAware Approximate
12:24PM 43.1889 -114.3192 210° Southwest 354 407 11,600  Level Salt Lake Center
12:25PM 42.8752 -114.3777 189° South  Level FlightAware Approximate
12:25PM 43.0811 -114.3464 190° South 375 432 13,100  Level Salt Lake Center
12:26PM 42.7814 -114.4062 194° South  Level FlightAware Approximate
12:26PM 42.9819 -114.3714 190° South 375 432 14,500  Level Salt Lake Center
12:27PM 42.6879 -114.4364 190° South  Level FlightAware Approximate
12:27PM 42.8906 -114.4483 212° Southwest 386 444 16,100  Level Salt Lake Center
12:28PM 42.5934 -114.4600 190° South  Level FlightAware Approximate
12:28PM 42.8125 -114.5519 224° Southwest 378 435 17,600  Level Salt Lake Center
12:29PM 42.7344 -114.6550 224° Southwest 375 432 19,000 1,380 Climbing Salt Lake Center
12:30PM 42.6597 -114.7547 224° Southwest 366 421 20,500 1,380 Climbing Salt Lake Center
12:31PM 42.5917 -114.8444 224° Southwest 360 414 21,900 1,440 Climbing Salt Lake Center
12:32PM 42.5125 -114.9500 225° Southwest 354 407 23,500 1,500 Climbing Salt Lake Center
12:33PM 42.4453 -115.0389 224° Southwest 354 407 25,000 1,500 Climbing Salt Lake Center
12:34PM 42.3661 -115.1408 224° Southwest 353 406 26,600 1,440 Climbing Salt Lake Center
12:35PM 42.2983 -115.2292 224° Southwest 354 407 28,000 1,200 Climbing Salt Lake Center
12:36PM 42.2175 -115.3339 224° Southwest 360 414 29,100 960 Climbing Salt Lake Center
12:37PM 42.1458 -115.4267 224° Southwest 371 427 30,100 900 Climbing Salt Lake Center
12:39PM 42.0694 -115.5253 224° Southwest 377 434 31,000 960 Climbing Salt Lake Center
12:40PM 41.9856 -115.6339 224° Southwest 376 433 32,100 960 Climbing Salt Lake Center
12:41PM 41.9136 -115.7275 224° Southwest 374 430 33,100 900 Climbing Salt Lake Center
12:42PM 41.8417 -115.8186 223° Southwest 372 428 34,000 960 Climbing Salt Lake Center
12:43PM 41.7589 -115.9228 223° Southwest 365 420 35,100 960 Climbing Salt Lake Center
12:44PM 41.6881 -116.0111 223° Southwest 363 418 36,000 840 Climbing Salt Lake Center
12:45PM 41.6072 -116.1158 224° Southwest 363 418 36,900 720 Climbing Salt Lake Center
12:46PM 41.5367 -116.2044 223° Southwest 363 418 37,600 480 Climbing Salt Lake Center
12:47PM 41.4542 -116.3089 224° Southwest 366 421 38,000 180 Climbing Salt Lake Center
12:48PM 41.3797 -116.4019 223° Southwest 381 438 38,000  Level Salt Lake Center
12:49PM 41.2906 -116.5136 223° Southwest 393 452 38,000  Level Salt Lake Center
12:50PM 41.2142 -116.6108 224° Southwest 398 458 38,000  Level Salt Lake Center
12:51PM 41.1233 -116.7217 223° Southwest 397 457 38,000  Level Salt Lake Center
12:52PM 41.0472 -116.8164 223° Southwest 394 453 38,000  Level Salt Lake Center
12:53PM 40.9586 -116.9261 223° Southwest 393 452 38,000  Level Salt Lake Center
12:54PM 40.8806 -117.0197 222° Southwest 395 455 38,000  Level Salt Lake Center
12:55PM 40.7908 -117.1283 223° Southwest 393 452 38,000  Level Salt Lake Center
12:56PM 40.7156 -117.2217 223° Southwest 392 451 38,000  Level Salt Lake Center
12:57PM 40.6264 -117.3294 223° Southwest 391 450 38,000  Level Salt Lake Center
12:58PM 40.5503 -117.4208 222° Southwest 389 448 38,000  Level Salt Lake Center
12:59PM 40.4617 -117.5283 223° Southwest 389 448 38,000  Level Salt Lake Center
01:00PM 40.3850 -117.6200 222° Southwest 389 448 38,000  Level Salt Lake Center
01:01PM 40.2947 -117.7256 222° Southwest 390 449 38,000  Level Salt Lake Center
01:02PM 40.2194 -117.8172 223° Southwest 387 445 38,000  Level Salt Lake Center
01:03PM 40.1297 -117.9233 222° Southwest 387 445 38,000  Level Salt Lake Center
01:04PM 40.0597 -118.0056 222° Southwest 388 447 38,000  Level Salt Lake Center
01:05PM 39.9644 -118.1192 222° Southwest 386 444 38,000  Level Salt Lake Center
01:06PM 39.8836 -118.2139 222° Southwest 389 448 38,000  Level Salt Lake Center
01:07PM 39.7933 -118.2922 214° Southwest 390 449 38,000  Level Salt Lake Center
01:08PM 39.6986 -118.3614 209° Southwest 389 448 38,000  Level Salt Lake Center
01:10PM 39.6031 -118.4303 209° Southwest 390 449 38,000  Level Salt Lake Center
01:11PM 39.4878 -118.5128 209° Southwest 391 450 38,000 -60 Level Oakland Center
01:12PM 39.3919 -118.5814 209° Southwest 391 450 37,900 -600 Descending Oakland Center
01:13PM 39.2947 -118.6511 209° Southwest 403 464 36,900 -1,080 Descending Oakland Center
01:14PM 39.1886 -118.7261 209° Southwest 405 466 35,800 -1,080 Descending Oakland Center
01:15PM 39.0897 -118.7967 209° Southwest 404 465 34,700 -900 Descending Oakland Center
01:16PM 38.9917 -118.8656 209° Southwest 403 464 34,000 -360 Descending Oakland Center
01:17PM 38.8958 -118.9342 209° Southwest 393 452 34,000  Level Oakland Center
01:18PM 38.7953 -119.0031 208° Southwest 404 465 34,000  Level Oakland Center
01:19PM 38.6956 -119.0736 209° Southwest 410 472 34,000  Level Oakland Center
01:20PM 38.5944 -119.1444 209° Southwest 412 474 34,000  Level Oakland Center
01:21PM 38.4722 -119.2283 208° Southwest 414 476 34,000 -300 Level Oakland Center
01:22PM 38.3708 -119.2986 209° Southwest 415 478 33,400 -840 Descending Oakland Center
01:23PM 38.2694 -119.3700 209° Southwest 414 476 32,300 -1,080 Descending Oakland Center
01:24PM 38.1681 -119.4386 208° Southwest 412 474 31,300 -1,020 Descending Oakland Center
01:25PM 38.0744 -119.5031 208° Southwest 403 464 30,300 -1,080 Descending Oakland Center
01:26PM 37.9733 -119.5722 208° Southwest 406 467 29,100 -1,320 Descending Oakland Center
01:27PM 37.8711 -119.6425 208° Southwest 417 480 27,600 -1,560 Descending Oakland Center
01:28PM 37.7672 -119.7122 208° Southwest 421 484 26,000 -1,740 Descending Oakland Center
01:29PM 37.6539 -119.8139 215° Southwest 419 482 24,100 -1,740 Descending Oakland Center
01:30PM 37.5731 -119.9211 226° Southwest 418 481 22,500 -1,620 Descending Oakland Center
01:31PM 37.4953 -120.0275 227° Southwest 415 478 20,900 -1,260 Descending Oakland Center
01:32PM 37.4172 -120.1314 227° Southwest 410 472 20,000 -540 Descending Oakland Center
01:33PM 37.3394 -120.2356 227° Southwest 408 470 19,900 -1,080 Descending Oakland Center
01:34PM 37.2644 -120.3381 227° Southwest 400 460 17,800 -2,100 Descending Oakland Center
01:35PM 37.2167 -120.4167 233° Southwest 416 479 16,400 -2,280 Descending Northern Cal TRACON
01:36PM 37.1833 -120.5500 253° West 420 483 14,100 -2,220 Descending Northern Cal TRACON
01:37PM 37.1667 -120.6667 260° West 376 433 12,200 -2,100 Descending Northern Cal TRACON
01:38PM 37.1333 -120.7833 250° West 362 417 10,200 -1,140 Descending Northern Cal TRACON
01:39PM 37.1167 -120.9000 260° West 334 384 10,000 -180 Descending Northern Cal TRACON
01:39PM 37.0983 -120.9608 249° West 329 379 10,000 60 Level Oakland Center
01:40PM 37.0731 -121.0742 254° West 336 387 10,100  Climbing Oakland Center
01:41PM 37.0639 -121.1908 264° West 327 376 10,100  Level Oakland Center
01:42PM 37.0586 -121.2925 266° West 299 344 10,100 -240 Level Oakland Center
01:43PM 37.0536 -121.3914 266° West 294 338 9,700 -780 Descending Oakland Center
01:44PM 37.0489 -121.4919 267° West 287 330 8,600 -1,080 Descending Oakland Center
01:45PM 37.0586 -121.5869 277° West 288 331 7,600 -960 Descending Oakland Center
01:47PM 37.1125 -121.6483 318° Northwest 267 307 6,700 -1,200 Descending Oakland Center
01:48PM 37.1636 -121.7147 314° West 263 303 5,200 -1,320 Descending Oakland Center
01:49PM 37.2111 -121.7697 317° Northwest 247 284 4,000 -1,380 Descending Oakland Center
01:50PM 37.2644 -121.8256 320° Northwest 219 252 2,400 -1,140 Descending Oakland Center
01:51PM 37.2933 -121.8542 322° Northwest 163 188 1,700 -720 Descending Oakland Center
01:52PM 37.3169 -121.8833 316° Northwest 135 155 1,000 -660 Descending Oakland Center
01:53PM 37.3419 -121.9100 320° Northwest 124 143 400 -600 Descending Oakland Center
01:55PM 37.3500 -121.9167 North  Level FlightAware Approximate